Terminal Aerodrome Forecast
Issued by NWS

Home | Current Version | Previous Version | Graphics & Text | Print | Product List | Glossary On
Versions: 1 2 3 4 5 6 7 8 9 10 11 12 13 14
000
FTUS43 KABR 070900 AAA
TAFATY
TAF AMD
KATY 070958Z 0710/0806 30006KT P6SM SCT150
      TEMPO 0710/0712 33010G20KT 6SM -SHRA BKN080
     FM071700 29010KT P6SM BKN200=

USA.gov is the U.S. government's official web portal to all federal, state and local government web resources and services.